^^
Grace C. Lehan Memorial Weather Station Historical Data
Daily Summary for May 9, 2021 Units:  English    Metric   Both
Daily Weekly Monthly Yearly
  High: Low: Average:
Temperature: 25.5 °F 19.3 °F 21.5 °F
Dew Point: 22 °F 13.1 °F 16.4 °F
Humidity: 87% 75.4% 81%
Wind Speed: 0mph 0mph 0mph
Wind Gust: 0mph - -
Wind- -
Pressure: 30.41 in 30.28 in -
Precipitation: 0.00 in    
 
 
Tabular Data for May 9, 2021
Time Temperature Dew Point Pressure Wind Wind Speed Wind Gust Humidity Rainfall Rate (Hourly) solar
00:04 19.8 °F 13.3 °F 30.40 in Calm     75.4% 0.00 in 0 W/m2
00:09 19.8 °F 13.4 °F 30.40 in Calm     76% 0.00 in 0 W/m2
00:14 19.7 °F 13.3 °F 30.40 in Calm     76% 0.00 in 0 W/m2
00:19 19.6 °F 13.2 °F 30.40 in Calm     76% 0.00 in 0 W/m2
00:24 19.5 °F 13.1 °F 30.40 in Calm     76% 0.00 in 0 W/m2
00:29 19.4 °F 13.1 °F 30.40 in Calm     76% 0.00 in 0 W/m2
00:34 19.3 °F 13.2 °F 30.40 in Calm     76.7% 0.00 in 0 W/m2
00:39 19.3 °F 13.3 °F 30.40 in Calm     77% 0.00 in 0 W/m2
00:44 19.3 °F 13.3 °F 30.39 in Calm     77% 0.00 in 0 W/m2
00:49 19.4 °F 13.8 °F 30.39 in Calm     78.4% 0.00 in 0 W/m2
00:54 19.4 °F 14.7 °F 30.40 in Calm     81.5% 0.00 in 0 W/m2
00:59 19.5 °F 13.8 °F 30.40 in Calm     78% 0.00 in 0 W/m2
01:04 19.5 °F 13.8 °F 30.40 in Calm     78% 0.00 in 0 W/m2
01:09 19.6 °F 13.9 °F 30.41 in Calm     78% 0.00 in 0 W/m2
01:14 19.9 °F 14 °F 30.41 in Calm     77.6% 0.00 in 0 W/m2
01:19 20 °F 14 °F 30.40 in Calm     77% 0.00 in 0 W/m2
01:24 20.1 °F 14.1 °F 30.41 in Calm     77% 0.00 in 0 W/m2
01:29 20.2 °F 14.2 °F 30.41 in Calm     77% 0.00 in 0 W/m2
01:34 20.3 °F 14.3 °F 30.41 in Calm     77% 0.00 in 0 W/m2
01:39 20.4 °F 14.4 °F 30.41 in Calm     77% 0.00 in 0 W/m2
01:44 20.5 °F 14.5 °F 30.41 in Calm     77% 0.00 in 0 W/m2
01:49 20.6 °F 14.4 °F 30.40 in Calm     76.5% 0.00 in 0 W/m2
01:54 20.7 °F 14.3 °F 30.40 in Calm     76% 0.00 in 0 W/m2
01:59 20.7 °F 14.4 °F 30.40 in Calm     76% 0.00 in 0 W/m2
02:04 20.6 °F 14.4 °F 30.39 in Calm     76.5% 0.00 in 0 W/m2
02:09 20.6 °F 14.5 °F 30.39 in Calm     77% 0.00 in 0 W/m2
02:14 20.5 °F 14.4 °F 30.39 in Calm     77% 0.00 in 0 W/m2
02:19 20.4 °F 14.4 °F 30.38 in Calm     77% 0.00 in 0 W/m2
02:24 20.4 °F 14.6 °F 30.38 in Calm     77.9% 0.00 in 0 W/m2
02:29 20.4 °F 14.6 °F 30.37 in Calm     78% 0.00 in 0 W/m2
02:34 20.4 °F 14.7 °F 30.37 in Calm     78% 0.00 in 0 W/m2
02:39 20.4 °F 14.6 °F 30.37 in Calm     78% 0.00 in 0 W/m2
02:44 20.3 °F 14.6 °F 30.38 in Calm     78% 0.00 in 0 W/m2
02:49 20.2 °F 14.5 °F 30.37 in Calm     78% 0.00 in 0 W/m2
02:52 20.2 °F 14.4 °F 30.38 in Calm     78% 0.00 in 0 W/m2
03:00 19.8 °F 14.1 °F 30.38 in Calm     78% 0.00 in 0 W/m2
03:30 19.7 °F 14.5 °F 30.38 in Calm     80% 0.00 in 0 W/m2
04:04 20.1 °F 14.9 °F 30.38 in Calm     80% 0.00 in 0 W/m2
04:09 20.2 °F 15.2 °F 30.37 in Calm     80.6% 0.00 in 0 W/m2
04:14 20.3 °F 15.4 °F 30.37 in Calm     81% 0.00 in 0 W/m2
04:19 20.4 °F 15.5 °F 30.36 in Calm     81% 0.00 in 0 W/m2
04:24 20.5 °F 15.4 °F 30.37 in Calm     80.5% 0.00 in 0 W/m2
04:29 20.6 °F 15.7 °F 30.36 in Calm     80.8% 0.00 in 0 W/m2
04:34 20.7 °F 15.5 °F 30.37 in Calm     80.1% 0.00 in 0 W/m2
04:39 20.8 °F 15.6 °F 30.37 in Calm     80% 0.00 in 0 W/m2
04:44 20.8 °F 15.6 °F 30.37 in Calm     80% 0.00 in 0 W/m2
04:49 20.8 °F 15.6 °F 30.37 in Calm     80% 0.00 in 0 W/m2
04:54 20.8 °F 15.6 °F 30.37 in Calm     80% 0.00 in 0 W/m2
04:59 20.8 °F 15.7 °F 30.36 in Calm     80% 0.00 in 0 W/m2
05:04 20.9 °F 15.7 °F 30.36 in Calm     80% 0.00 in 0 W/m2
05:09 20.9 °F 15.8 °F 30.36 in Calm     80% 0.00 in 0 W/m2
05:14 21 °F 15.9 °F 30.36 in Calm     80% 0.00 in 0 W/m2
05:19 21.1 °F 16 °F 30.36 in Calm     80.2% 0.00 in 0 W/m2
05:24 21.2 °F 16.2 °F 30.36 in Calm     81% 0.00 in 0 W/m2
05:29 21.2 °F 16.1 °F 30.36 in Calm     80.4% 0.00 in 0 W/m2
05:34 21.2 °F 16 °F 30.36 in Calm     80% 0.00 in 0 W/m2
05:39 21.2 °F 16.2 °F 30.36 in Calm     80.8% 0.00 in 0 W/m2
05:44 21.3 °F 16.4 °F 30.36 in Calm     81% 0.00 in 0 W/m2
05:49 21.3 °F 16.4 °F 30.36 in Calm     81% 0.00 in 0 W/m2
05:54 21.3 °F 16.4 °F 30.36 in Calm     81% 0.00 in 0 W/m2
05:59 21.4 °F 16.5 °F 30.36 in Calm     81% 0.00 in 0 W/m2
06:04 21.5 °F 16.5 °F 30.36 in Calm     81% 0.00 in 0 W/m2
06:09 21.5 °F 16.6 °F 30.36 in Calm     81% 0.00 in 0 W/m2
06:14 21.6 °F 16.7 °F 30.36 in Calm     81% 0.00 in 0 W/m2
06:19 21.7 °F 16.5 °F 30.35 in Calm     80.1% 0.00 in 0 W/m2
06:24 21.7 °F 16.5 °F 30.35 in Calm     80% 0.00 in 0 W/m2
06:29 21.8 °F 16.6 °F 30.36 in Calm     80% 0.00 in 0 W/m2
06:34 21.9 °F 17 °F 30.35 in Calm     80.8% 0.00 in 0 W/m2
06:39 22 °F 16.8 °F 30.35 in Calm     80% 0.00 in 0 W/m2
06:44 22.1 °F 16.9 °F 30.35 in Calm     80% 0.00 in 0 W/m2
06:49 22.2 °F 17 °F 30.35 in Calm     80% 0.00 in 0 W/m2
06:54 22.2 °F 17 °F 30.35 in Calm     80% 0.00 in 0 W/m2
06:59 22.3 °F 17.3 °F 30.34 in Calm     80.7% 0.00 in 0 W/m2
07:04 22.4 °F 17.4 °F 30.33 in Calm     81% 0.00 in 0 W/m2
07:09 22.5 °F 17.6 °F 30.33 in Calm     81.3% 0.00 in 0 W/m2
07:14 22.6 °F 17.9 °F 30.33 in Calm     82% 0.00 in 0 W/m2
07:19 22.7 °F 18 °F 30.33 in Calm     82% 0.00 in 0 W/m2
07:24 22.7 °F 18.1 °F 30.32 in Calm     82% 0.00 in 5 W/m2
07:29 22.8 °F 18.2 °F 30.33 in Calm     82.1% 0.00 in 7 W/m2
07:34 22.8 °F 18.4 °F 30.33 in Calm     83% 0.00 in 9 W/m2
07:39 22.8 °F 18.5 °F 30.33 in Calm     83% 0.00 in 9 W/m2
07:44 22.9 °F 18.5 °F 30.32 in Calm     83% 0.00 in 11 W/m2
07:49 22.9 °F 18.7 °F 30.32 in Calm     83.7% 0.00 in 11 W/m2
07:54 23 °F 18.9 °F 30.32 in Calm     84% 0.00 in 12 W/m2
07:59 23 °F 18.9 °F 30.32 in Calm     84% 0.00 in 14 W/m2
08:04 23.1 °F 19.3 °F 30.31 in Calm     85% 0.00 in 16 W/m2
08:09 23.1 °F 19.3 °F 30.32 in Calm     85% 0.00 in 23 W/m2
08:14 23.2 °F 19.4 °F 30.31 in Calm     85% 0.00 in 26 W/m2
08:15 23.3 °F 19.4 °F 30.31 in Calm     85% 0.00 in 26 W/m2
08:30 23.7 °F 20.1 °F 30.31 in Calm     86% 0.00 in 25 W/m2
09:09 24.4 °F 20.5 °F 30.31 in Calm     85% 0.00 in 39 W/m2
09:14 24.4 °F 20.5 °F 30.31 in Calm     85% 0.00 in 44 W/m2
09:19 24.4 °F 20.6 °F 30.30 in Calm     85.5% 0.00 in 53 W/m2
09:24 24.5 °F 20.9 °F 30.30 in Calm     86% 0.00 in 53 W/m2
09:29 24.7 °F 21.1 °F 30.30 in Calm     86% 0.00 in 40 W/m2
09:34 24.8 °F 21.2 °F 30.30 in Calm     86% 0.00 in 46 W/m2
09:39 24.8 °F 21.3 °F 30.30 in Calm     86% 0.00 in 58 W/m2
09:44 24.9 °F 21.4 °F 30.30 in Calm     86% 0.00 in 63 W/m2
09:49 25.1 °F 21.8 °F 30.29 in Calm     87% 0.00 in 67 W/m2
09:54 25.3 °F 22 °F 30.29 in Calm     87% 0.00 in 56 W/m2
09:59 25.3 °F 21.8 °F 30.29 in Calm     86.2% 0.00 in 39 W/m2
10:04 25.4 °F 21.8 °F 30.28 in Calm     86% 0.00 in 32 W/m2
10:08 25.5 °F 22 °F 30.28 in Calm     86.5% 0.00 in 33 W/m2
Hartford County Weather
Compliments of Weather Underground - 2 mb